sensor_id;sensor_type;location;lat;lon;timestamp;pressure;altitude;pressure_sealevel;temperature;humidity
30338;BME280;17143;51.888;5.408;2022-08-11T00:12:50;102119.22;;;22.95;49.98
30338;BME280;17143;51.888;5.408;2022-08-11T00:27:53;102107.34;;;22.79;50.46
30338;BME280;17143;51.888;5.408;2022-08-11T00:43:00;102105.03;;;22.60;51.04
30338;BME280;17143;51.888;5.408;2022-08-11T00:58:42;102125.00;;;22.44;52.13
30338;BME280;17143;51.888;5.408;2022-08-11T01:14:23;102110.03;;;22.15;53.28
30338;BME280;17143;51.888;5.408;2022-08-11T01:30:00;102106.72;;;21.93;55.03
30338;BME280;17143;51.888;5.408;2022-08-11T01:45:15;102107.09;;;21.75;54.56
30338;BME280;17143;51.888;5.408;2022-08-11T02:00:28;102099.53;;;21.59;55.70
30338;BME280;17143;51.888;5.408;2022-08-11T02:15:35;102102.56;;;21.43;56.54
30338;BME280;17143;51.888;5.408;2022-08-11T02:30:46;102094.91;;;21.23;57.61
30338;BME280;17143;51.888;5.408;2022-08-11T02:46:02;102094.31;;;21.05;58.57
30338;BME280;17143;51.888;5.408;2022-08-11T03:01:14;102090.41;;;20.94;59.18
30338;BME280;17143;51.888;5.408;2022-08-11T03:16:23;102090.72;;;20.77;59.94
30338;BME280;17143;51.888;5.408;2022-08-11T03:31:29;102086.69;;;20.61;60.93
30338;BME280;17143;51.888;5.408;2022-08-11T03:46:50;102097.59;;;20.45;62.09
30338;BME280;17143;51.888;5.408;2022-08-11T04:02:09;102089.06;;;20.28;63.20
30338;BME280;17143;51.888;5.408;2022-08-11T04:48:47;102073.31;;;20.08;65.08
30338;BME280;17143;51.888;5.408;2022-08-11T05:04:12;102074.59;;;20.19;65.17
30338;BME280;17143;51.888;5.408;2022-08-11T05:19:18;102078.34;;;20.49;64.97
30338;BME280;17143;51.888;5.408;2022-08-11T05:34:24;102085.94;;;23.12;58.88
30338;BME280;17143;51.888;5.408;2022-08-11T05:49:29;102093.19;;;26.34;49.01
30338;BME280;17143;51.888;5.408;2022-08-11T06:04:32;102099.53;;;27.64;44.85
30338;BME280;17143;51.888;5.408;2022-08-11T06:19:39;102112.22;;;28.06;43.08
30338;BME280;17143;51.888;5.408;2022-08-11T06:34:55;102106.91;;;28.42;42.83
30338;BME280;17143;51.888;5.408;2022-08-11T06:49:59;102106.97;;;28.74;42.25
30338;BME280;17143;51.888;5.408;2022-08-11T07:05:07;102112.31;;;29.09;41.07
30338;BME280;17143;51.888;5.408;2022-08-11T07:20:12;102123.66;;;30.04;40.14
30338;BME280;17143;51.888;5.408;2022-08-11T07:35:16;102131.28;;;30.75;37.40
30338;BME280;17143;51.888;5.408;2022-08-11T07:50:21;102114.13;;;30.92;36.90
30338;BME280;17143;51.888;5.408;2022-08-11T08:05:24;102106.63;;;31.19;35.23
30338;BME280;17143;51.888;5.408;2022-08-11T08:20:29;102106.22;;;31.59;32.74
30338;BME280;17143;51.888;5.408;2022-08-11T08:35:32;102107.22;;;32.19;32.76
30338;BME280;17143;51.888;5.408;2022-08-11T08:50:42;102109.53;;;32.98;31.57
30338;BME280;17143;51.888;5.408;2022-08-11T09:05:45;102103.44;;;32.88;30.74
30338;BME280;17143;51.888;5.408;2022-08-11T09:20:48;102095.91;;;33.05;31.34
30338;BME280;17143;51.888;5.408;2022-08-11T09:35:51;102089.31;;;33.66;30.31
30338;BME280;17143;51.888;5.408;2022-08-11T09:50:55;102077.41;;;33.75;30.35
30338;BME280;17143;51.888;5.408;2022-08-11T10:05:59;102083.09;;;33.62;29.67
30338;BME280;17143;51.888;5.408;2022-08-11T10:21:06;102066.53;;;34.17;28.32
30338;BME280;17143;51.888;5.408;2022-08-11T10:36:09;102066.72;;;34.10;27.83
30338;BME280;17143;51.888;5.408;2022-08-11T10:51:12;102054.59;;;34.63;26.27
30338;BME280;17143;51.888;5.408;2022-08-11T11:06:21;102050.63;;;34.02;27.32
30338;BME280;17143;51.888;5.408;2022-08-11T11:21:24;102030.41;;;34.18;27.46
30338;BME280;17143;51.888;5.408;2022-08-11T11:36:31;102025.56;;;34.68;26.45
30338;BME280;17143;51.888;5.408;2022-08-11T11:51:39;102020.16;;;34.68;24.92
30338;BME280;17143;51.888;5.408;2022-08-11T12:06:41;102002.50;;;34.18;25.30
30338;BME280;17143;51.888;5.408;2022-08-11T12:21:44;101988.00;;;34.53;25.40
30338;BME280;17143;51.888;5.408;2022-08-11T12:36:49;101973.84;;;34.77;23.71
30338;BME280;17143;51.888;5.408;2022-08-11T12:51:53;101951.78;;;34.60;24.22
30338;BME280;17143;51.888;5.408;2022-08-11T13:06:55;101952.75;;;34.88;23.16
30338;BME280;17143;51.888;5.408;2022-08-11T13:21:57;101932.66;;;34.95;22.14
30338;BME280;17143;51.888;5.408;2022-08-11T13:37:01;101917.50;;;35.20;23.17
30338;BME280;17143;51.888;5.408;2022-08-11T13:52:04;101907.91;;;35.09;22.70
30338;BME280;17143;51.888;5.408;2022-08-11T14:07:08;101897.69;;;35.18;22.39
30338;BME280;17143;51.888;5.408;2022-08-11T14:22:12;101885.72;;;35.25;23.13
30338;BME280;17143;51.888;5.408;2022-08-11T14:37:19;101867.44;;;35.32;23.32
30338;BME280;17143;51.888;5.408;2022-08-11T14:52:23;101856.63;;;35.01;22.80
30338;BME280;17143;51.888;5.408;2022-08-11T15:07:25;101837.44;;;34.79;22.99
30338;BME280;17143;51.888;5.408;2022-08-11T15:22:28;101828.97;;;35.19;24.11
30338;BME280;17143;51.888;5.408;2022-08-11T15:37:30;101810.66;;;34.69;22.92
30338;BME280;17143;51.888;5.408;2022-08-11T15:52:34;101802.00;;;34.58;23.35
30338;BME280;17143;51.888;5.408;2022-08-11T16:07:42;101789.69;;;34.45;23.44
30338;BME280;17143;51.888;5.408;2022-08-11T16:22:47;101777.81;;;34.19;23.96
30338;BME280;17143;51.888;5.408;2022-08-11T16:37:51;101767.66;;;33.95;23.79
30338;BME280;17143;51.888;5.408;2022-08-11T16:52:54;101756.56;;;33.72;24.16
30338;BME280;17143;51.888;5.408;2022-08-11T17:07:57;101760.09;;;33.39;23.67
30338;BME280;17143;51.888;5.408;2022-08-11T17:23:01;101748.56;;;32.95;25.14
30338;BME280;17143;51.888;5.408;2022-08-11T17:38:08;101750.03;;;32.70;24.92
30338;BME280;17143;51.888;5.408;2022-08-11T17:53:13;101748.97;;;32.36;26.43
30338;BME280;17143;51.888;5.408;2022-08-11T18:08:16;101757.81;;;32.00;27.33
30338;BME280;17143;51.888;5.408;2022-08-11T18:23:21;101754.81;;;31.67;28.03
30338;BME280;17143;51.888;5.408;2022-08-11T18:38:26;101760.66;;;31.40;28.87
30338;BME280;17143;51.888;5.408;2022-08-11T18:53:30;101771.09;;;31.03;29.69
30338;BME280;17143;51.888;5.408;2022-08-11T19:08:39;101789.56;;;30.68;31.17
30338;BME280;17143;51.888;5.408;2022-08-11T19:23:43;101791.84;;;30.24;32.17
30338;BME280;17143;51.888;5.408;2022-08-11T19:38:47;101796.78;;;29.82;32.61
30338;BME280;17143;51.888;5.408;2022-08-11T19:53:50;101802.47;;;29.43;33.91
30338;BME280;17143;51.888;5.408;2022-08-11T20:08:58;101822.44;;;29.04;35.22
30338;BME280;17143;51.888;5.408;2022-08-11T20:24:01;101819.00;;;28.60;36.31
30338;BME280;17143;51.888;5.408;2022-08-11T20:39:04;101812.03;;;28.13;36.37
30338;BME280;17143;51.888;5.408;2022-08-11T20:54:06;101821.88;;;27.66;36.97
30338;BME280;17143;51.888;5.408;2022-08-11T21:09:09;101826.31;;;27.37;37.42
30338;BME280;17143;51.888;5.408;2022-08-11T21:24:13;101828.94;;;27.09;37.54
30338;BME280;17143;51.888;5.408;2022-08-11T21:39:20;101827.00;;;26.75;38.45
30338;BME280;17143;51.888;5.408;2022-08-11T21:54:23;101829.56;;;26.45;39.32
30338;BME280;17143;51.888;5.408;2022-08-11T22:09:26;101816.03;;;26.15;39.86
30338;BME280;17143;51.888;5.408;2022-08-11T22:24:29;101814.88;;;25.82;41.17
30338;BME280;17143;51.888;5.408;2022-08-11T22:39:33;101812.91;;;25.57;42.84
30338;BME280;17143;51.888;5.408;2022-08-11T22:54:37;101812.59;;;25.27;44.10
30338;BME280;17143;51.888;5.408;2022-08-11T23:09:39;101801.66;;;25.03;45.46
30338;BME280;17143;51.888;5.408;2022-08-11T23:24:41;101810.31;;;24.80;46.08
30338;BME280;17143;51.888;5.408;2022-08-11T23:39:43;101811.81;;;24.60;46.87
30338;BME280;17143;51.888;5.408;2022-08-11T23:54:45;101809.78;;;24.41;47.84
